Time;durP1;ratioP1;P1;durP2;ratioP2;P2;SDS_P1;SDS_P2;PMS_P1;PMS_P2;Temp;Humidity;BMP_temperature;BMP_pressure;BME280_temperature;BME280_humidity;BME280_pressure;Samples;Min_cycle;Max_cycle;Signal;HPM_P1;HPM_P2
2024/02/02 00:01:52;;;;;;;17.10;7.70;;;5.70;99.90;;;;;;4991762;28;20608;-65
2024/02/02 00:04:20;;;;;;;16.07;5.83;;;5.70;99.90;;;;;;4991943;28;20468;-65
2024/02/02 00:06:48;;;;;;;15.63;5.73;;;5.70;99.90;;;;;;4992799;28;20488;-64
2024/02/02 00:09:19;;;;;;;11.80;6.83;;;5.60;99.90;;;;;;4996181;28;20595;-64
2024/02/02 00:11:47;;;;;;;13.17;6.00;;;5.70;99.90;;;;;;4990545;28;20495;-64
2024/02/02 00:14:17;;;;;;;13.60;5.80;;;5.70;99.90;;;;;;4994744;28;21146;-65
2024/02/02 00:16:45;;;;;;;14.60;6.23;;;5.60;99.90;;;;;;4995502;28;20488;-65
2024/02/02 00:19:13;;;;;;;15.33;6.33;;;5.60;99.90;;;;;;4994834;28;20476;-65
2024/02/02 00:21:42;;;;;;;14.50;6.33;;;5.70;99.90;;;;;;4993388;28;20535;-65
2024/02/02 00:24:10;;;;;;;12.07;5.50;;;5.70;99.90;;;;;;4995591;28;20476;-64
2024/02/02 00:26:39;;;;;;;18.73;6.47;;;5.70;99.90;;;;;;4990717;28;20480;-65
2024/02/02 00:29:07;;;;;;;17.10;6.40;;;5.70;99.90;;;;;;4985363;28;20503;-64
2024/02/02 00:31:35;;;;;;;15.23;5.50;;;5.60;99.90;;;;;;4992845;28;20993;-64
2024/02/02 00:34:02;;;;;;;13.00;5.80;;;5.60;99.90;;;;;;4991669;28;20529;-64
2024/02/02 00:36:31;;;;;;;10.30;5.40;;;5.60;99.90;;;;;;4992143;28;20469;-64
2024/02/02 00:38:59;;;;;;;13.90;5.77;;;5.60;99.90;;;;;;4996486;28;20472;-64
2024/02/02 00:41:27;;;;;;;10.63;6.00;;;5.60;99.90;;;;;;4988904;28;20497;-64
2024/02/02 00:43:57;;;;;;;9.53;5.60;;;5.60;99.90;;;;;;4993169;28;20863;-64
2024/02/02 00:46:25;;;;;;;12.40;5.50;;;5.60;99.90;;;;;;4994834;28;20476;-64
2024/02/02 00:48:53;;;;;;;12.60;5.90;;;5.60;99.90;;;;;;4992815;28;20563;-64
2024/02/02 00:51:21;;;;;;;15.03;6.37;;;5.60;99.90;;;;;;4992251;28;20583;-63
2024/02/02 00:53:52;;;;;;;10.90;5.90;;;5.60;99.90;;;;;;4991642;28;22575;-63
2024/02/02 00:56:20;;;;;;;9.53;4.53;;;5.50;99.90;;;;;;4988848;28;20476;-63
2024/02/02 00:58:48;;;;;;;17.27;5.73;;;5.50;99.90;;;;;;4993188;28;21047;-64
2024/02/02 01:01:18;;;;;;;10.60;5.13;;;5.50;99.90;;;;;;4995269;28;20603;-64
2024/02/02 01:03:46;;;;;;;14.43;5.90;;;5.50;99.90;;;;;;4992041;28;21020;-64
2024/02/02 01:06:14;;;;;;;12.97;4.93;;;5.50;99.90;;;;;;4996144;28;20501;-64
2024/02/02 01:08:42;;;;;;;11.03;4.93;;;5.60;99.90;;;;;;4986674;28;20486;-64
2024/02/02 01:11:11;;;;;;;9.63;4.87;;;5.50;99.90;;;;;;4986803;28;20496;-64
2024/02/02 01:13:39;;;;;;;13.70;5.30;;;5.50;99.90;;;;;;4993867;28;20559;-64
2024/02/02 01:16:08;;;;;;;11.30;5.40;;;5.50;99.90;;;;;;4996741;28;20473;-65
2024/02/02 01:18:37;;;;;;;11.53;5.30;;;5.60;99.90;;;;;;4991843;28;20495;-64
2024/02/02 01:21:06;;;;;;;9.43;4.90;;;5.60;99.90;;;;;;4998287;28;20507;-64
2024/02/02 01:23:34;;;;;;;11.90;4.60;;;5.60;99.90;;;;;;4993512;28;20488;-64
2024/02/02 01:26:02;;;;;;;11.83;5.50;;;5.60;99.90;;;;;;4998544;28;20514;-63
2024/02/02 01:28:30;;;;;;;10.60;4.63;;;5.60;99.90;;;;;;4991981;28;20559;-64
2024/02/02 01:30:58;;;;;;;9.57;5.63;;;5.60;99.90;;;;;;4998755;28;21029;-64
2024/02/02 01:33:27;;;;;;;11.00;4.43;;;5.60;99.90;;;;;;4994284;28;20857;-64
2024/02/02 01:35:56;;;;;;;10.67;4.00;;;5.60;99.90;;;;;;4991223;28;20485;-64
2024/02/02 01:38:24;;;;;;;12.70;5.10;;;5.60;99.90;;;;;;4990552;28;20480;-64
2024/02/02 01:40:52;;;;;;;11.17;4.47;;;5.60;99.90;;;;;;4990516;28;20541;-64
2024/02/02 01:43:23;;;;;;;12.77;5.10;;;5.60;99.90;;;;;;4997993;28;20565;-64
2024/02/02 01:45:51;;;;;;;8.77;4.70;;;5.60;99.90;;;;;;4996729;28;20584;-63
2024/02/02 01:48:19;;;;;;;14.20;4.87;;;5.60;99.90;;;;;;4996311;28;20948;-64
2024/02/02 01:50:48;;;;;;;11.00;4.30;;;5.60;99.90;;;;;;4998790;28;20496;-63
2024/02/02 01:53:17;;;;;;;14.77;4.60;;;5.60;99.90;;;;;;4996229;28;20471;-64
2024/02/02 01:55:45;;;;;;;12.00;3.70;;;5.60;99.90;;;;;;4990761;28;20910;-63
2024/02/02 01:58:13;;;;;;;11.13;4.57;;;5.60;99.90;;;;;;4997287;28;20848;-63
2024/02/02 02:00:42;;;;;;;8.67;4.63;;;5.60;99.90;;;;;;4995656;28;20806;-64
2024/02/02 02:03:10;;;;;;;9.30;4.10;;;5.60;99.90;;;;;;4994218;28;20487;-64
2024/02/02 02:05:40;;;;;;;15.53;3.60;;;5.60;99.90;;;;;;4995642;28;20476;-64
2024/02/02 02:08:08;;;;;;;10.07;3.90;;;5.60;99.90;;;;;;4995885;28;20837;-64
2024/02/02 02:10:38;;;;;;;11.33;3.50;;;5.60;99.90;;;;;;4994762;28;20590;-64
2024/02/02 02:13:06;;;;;;;10.93;3.57;;;5.60;99.90;;;;;;4997727;28;20615;-64
2024/02/02 02:15:35;;;;;;;8.67;3.53;;;5.60;99.90;;;;;;4994960;28;20478;-63
2024/02/02 02:18:03;;;;;;;11.40;3.90;;;5.60;99.90;;;;;;4996138;28;20499;-64
2024/02/02 02:20:32;;;;;;;10.80;3.37;;;5.70;99.90;;;;;;4993114;28;20883;-63
2024/02/02 02:23:03;;;;;;;11.07;3.57;;;5.70;99.90;;;;;;4992603;28;20496;-64
2024/02/02 02:25:31;;;;;;;12.77;4.03;;;5.70;99.90;;;;;;4993395;28;20511;-64
2024/02/02 02:28:00;;;;;;;17.30;4.27;;;5.70;99.90;;;;;;4996572;28;20480;-64
2024/02/02 02:30:28;;;;;;;10.40;3.67;;;5.70;99.90;;;;;;4997564;28;20480;-64
2024/02/02 02:32:56;;;;;;;8.70;3.87;;;5.70;99.90;;;;;;4994290;28;20502;-64
2024/02/02 02:35:24;;;;;;;12.43;3.83;;;5.70;99.90;;;;;;4999334;28;20508;-63
2024/02/02 02:37:53;;;;;;;12.10;4.10;;;5.70;99.90;;;;;;4992177;28;20673;-64
2024/02/02 02:40:22;;;;;;;12.57;4.40;;;5.70;99.90;;;;;;5001546;28;20591;-64
2024/02/02 02:42:51;;;;;;;9.67;3.80;;;5.70;99.90;;;;;;4997270;28;20538;-64
2024/02/02 02:45:19;;;;;;;9.47;4.20;;;5.80;99.90;;;;;;4997404;28;20479;-64
2024/02/02 02:47:47;;;;;;;16.87;4.90;;;5.70;99.90;;;;;;5002043;28;20531;-64
2024/02/02 02:50:15;;;;;;;13.33;4.90;;;5.70;99.90;;;;;;4997366;28;20492;-64
2024/02/02 02:52:43;;;;;;;13.93;4.10;;;5.80;99.90;;;;;;4993004;28;20493;-63
2024/02/02 02:55:11;;;;;;;9.60;4.00;;;5.80;99.90;;;;;;5000152;28;21275;-64
2024/02/02 02:57:41;;;;;;;15.27;4.33;;;5.70;99.90;;;;;;5000275;28;20574;-64
2024/02/02 03:00:10;;;;;;;14.40;3.90;;;5.70;99.90;;;;;;4992001;28;21053;-64
2024/02/02 03:02:38;;;;;;;12.40;4.10;;;5.70;99.90;;;;;;5004668;28;21055;-64
2024/02/02 03:05:07;;;;;;;12.80;3.90;;;5.70;99.90;;;;;;4997593;28;20469;-64
2024/02/02 03:07:35;;;;;;;14.20;4.33;;;5.70;99.90;;;;;;5000235;28;21295;-64
2024/02/02 03:10:03;;;;;;;7.80;3.90;;;5.70;99.90;;;;;;5001051;28;20593;-65
2024/02/02 03:12:32;;;;;;;8.73;3.77;;;5.70;99.90;;;;;;4999664;28;20912;-64
2024/02/02 03:15:03;;;;;;;8.10;3.80;;;5.70;99.90;;;;;;5000884;28;20499;-64
2024/02/02 03:17:31;;;;;;;9.33;4.00;;;5.80;99.90;;;;;;4998385;28;20893;-64
2024/02/02 03:19:59;;;;;;;11.00;3.97;;;5.80;99.90;;;;;;4993266;28;20527;-64
2024/02/02 03:22:27;;;;;;;12.80;5.80;;;5.80;99.90;;;;;;4993761;28;20488;-64
2024/02/02 03:24:55;;;;;;;10.63;4.20;;;5.80;99.90;;;;;;4996765;28;20480;-64
2024/02/02 03:27:23;;;;;;;6.67;4.70;;;5.80;99.90;;;;;;4999812;28;20534;-64
2024/02/02 03:29:52;;;;;;;7.03;4.00;;;5.80;99.90;;;;;;4997019;28;20476;-64
2024/02/02 03:32:21;;;;;;;15.80;4.57;;;5.80;99.90;;;;;;4999765;28;20509;-64
2024/02/02 03:34:49;;;;;;;15.83;7.30;;;5.80;99.90;;;;;;4999341;28;20563;-66
2024/02/02 03:37:19;;;;;;;11.47;4.33;;;5.90;99.90;;;;;;4999243;28;20472;-63
2024/02/02 03:39:47;;;;;;;17.20;4.13;;;5.90;99.90;;;;;;4999784;28;20881;-64
2024/02/02 03:42:15;;;;;;;12.33;4.70;;;5.90;99.90;;;;;;5003263;28;20606;-64
2024/02/02 03:44:43;;;;;;;11.77;4.67;;;5.90;99.90;;;;;;4997474;28;20587;-64
2024/02/02 03:47:12;;;;;;;14.40;5.10;;;5.90;99.90;;;;;;5001220;28;20562;-64
2024/02/02 03:49:41;;;;;;;10.63;4.30;;;5.90;99.90;;;;;;5001518;28;20574;-64
2024/02/02 03:52:09;;;;;;;11.57;4.53;;;5.90;99.90;;;;;;4991972;28;20595;-64
2024/02/02 03:54:37;;;;;;;8.03;3.90;;;5.90;99.90;;;;;;4993330;28;20476;-64
2024/02/02 03:57:05;;;;;;;18.27;5.03;;;5.90;99.90;;;;;;4995111;28;20476;-64
2024/02/02 03:59:34;;;;;;;12.07;4.67;;;5.90;99.90;;;;;;4990118;28;20468;-64
2024/02/02 04:02:02;;;;;;;14.57;4.17;;;5.90;99.90;;;;;;4992270;28;20488;-64
2024/02/02 04:04:31;;;;;;;9.43;5.93;;;5.90;99.90;;;;;;4994641;28;20476;-64
2024/02/02 04:07:00;;;;;;;11.23;5.30;;;6.00;99.90;;;;;;4996040;28;20567;-64
2024/02/02 04:09:29;;;;;;;9.80;4.50;;;5.90;99.90;;;;;;4994043;28;20929;-63
2024/02/02 04:11:57;;;;;;;17.27;4.83;;;5.90;99.90;;;;;;4998442;28;20577;-63
2024/02/02 04:14:25;;;;;;;11.70;4.33;;;6.00;99.90;;;;;;4998818;28;20905;-64
2024/02/02 04:16:54;;;;;;;13.93;5.60;;;6.00;99.90;;;;;;4996391;28;20477;-64
2024/02/02 04:19:22;;;;;;;10.00;5.53;;;6.00;99.90;;;;;;4993687;28;22501;-64
2024/02/02 04:21:50;;;;;;;10.60;4.90;;;6.00;99.90;;;;;;4992223;28;20509;-64
2024/02/02 04:24:19;;;;;;;13.97;5.07;;;6.00;99.90;;;;;;4995575;28;20468;-65
2024/02/02 04:26:47;;;;;;;17.70;5.30;;;6.00;99.90;;;;;;4987960;28;20475;-64
2024/02/02 04:29:15;;;;;;;12.03;5.83;;;6.00;99.90;;;;;;5002339;28;21044;-64
2024/02/02 04:31:43;;;;;;;15.93;5.80;;;6.00;99.90;;;;;;5000425;28;20563;-64
2024/02/02 04:34:11;;;;;;;14.83;5.67;;;6.00;99.90;;;;;;5001840;28;20473;-64
2024/02/02 04:36:41;;;;;;;10.10;5.50;;;6.10;99.90;;;;;;4995870;28;20498;-64
2024/02/02 04:39:09;;;;;;;13.40;6.20;;;6.00;99.90;;;;;;5000617;28;20989;-64
2024/02/02 04:41:39;;;;;;;18.00;6.60;;;6.00;99.90;;;;;;5019145;28;20485;-64
2024/02/02 04:44:07;;;;;;;9.90;5.97;;;6.00;99.90;;;;;;5023128;28;20806;-63
2024/02/02 04:46:35;;;;;;;12.70;6.73;;;6.00;99.90;;;;;;5020515;28;20479;-64
2024/02/02 04:49:03;;;;;;;12.40;6.80;;;6.00;99.90;;;;;;5021137;28;21004;-64
2024/02/02 04:51:31;;;;;;;10.97;6.10;;;6.00;99.90;;;;;;5018759;28;20491;-64
2024/02/02 04:53:59;;;;;;;16.20;6.80;;;6.00;99.90;;;;;;5022926;28;21046;-64
2024/02/02 04:56:27;;;;;;;13.70;6.60;;;6.00;99.90;;;;;;5022678;28;20541;-64
2024/02/02 04:58:57;;;;;;;14.07;7.13;;;6.00;99.90;;;;;;5020687;28;20555;-64
2024/02/02 05:01:25;;;;;;;17.80;7.73;;;6.10;99.90;;;;;;5020973;28;20488;-64
2024/02/02 05:03:53;;;;;;;16.83;7.00;;;6.00;99.90;;;;;;5022412;28;20502;-64
2024/02/02 05:06:22;;;;;;;14.30;7.03;;;6.00;99.90;;;;;;5018160;28;20467;-64
2024/02/02 05:08:50;;;;;;;17.30;7.93;;;6.00;99.90;;;;;;5021152;28;20558;-64
2024/02/02 05:11:18;;;;;;;11.83;7.10;;;6.10;99.90;;;;;;5018918;28;20544;-64
2024/02/02 05:13:46;;;;;;;17.30;8.30;;;6.10;99.90;;;;;;5016306;28;20558;-64
2024/02/02 05:16:16;;;;;;;15.97;7.80;;;6.00;99.90;;;;;;5024086;28;20463;-64
2024/02/02 05:18:44;;;;;;;17.03;7.87;;;6.10;99.90;;;;;;5020674;28;20498;-64
2024/02/02 05:21:12;;;;;;;17.30;9.30;;;6.10;99.90;;;;;;5015366;28;20498;-63
2024/02/02 05:23:40;;;;;;;14.00;8.10;;;6.10;99.90;;;;;;5016268;28;20910;-64
2024/02/02 05:26:16;;;;;;;18.10;7.97;;;6.10;99.90;;;;;;5017751;28;20475;-64
2024/02/02 05:28:45;;;;;;;18.50;8.70;;;6.10;99.90;;;;;;5021319;28;20499;-64
2024/02/02 05:31:13;;;;;;;17.50;9.33;;;6.10;99.90;;;;;;5021181;28;20565;-64
2024/02/02 05:33:43;;;;;;;14.33;8.70;;;6.10;99.90;;;;;;5022577;28;20946;-64
2024/02/02 05:36:14;;;;;;;21.07;8.93;;;6.10;99.90;;;;;;5020044;28;20459;-63
2024/02/02 05:38:42;;;;;;;15.67;8.57;;;6.10;99.90;;;;;;5021332;28;21008;-64
2024/02/02 05:41:10;;;;;;;17.37;8.97;;;6.10;99.90;;;;;;5022729;28;20577;-64
2024/02/02 05:43:38;;;;;;;19.33;9.30;;;6.00;99.90;;;;;;5015993;28;20490;-64
2024/02/02 05:46:06;;;;;;;16.27;8.93;;;6.10;99.90;;;;;;5018919;28;20471;-64
2024/02/02 05:48:34;;;;;;;19.37;9.23;;;6.00;99.90;;;;;;5020910;28;20467;-63
2024/02/02 05:51:04;;;;;;;20.57;9.80;;;6.00;99.90;;;;;;5017941;28;20602;-64
2024/02/02 05:53:33;;;;;;;13.07;9.47;;;6.10;99.90;;;;;;5020826;28;20587;-64
2024/02/02 05:56:01;;;;;;;18.57;10.30;;;6.10;99.90;;;;;;5021213;28;20534;-68
2024/02/02 05:58:29;;;;;;;16.27;9.93;;;6.10;99.90;;;;;;5018099;28;20464;-64
2024/02/02 06:00:57;;;;;;;16.67;9.87;;;6.10;99.90;;;;;;5018940;28;20483;-63
2024/02/02 06:03:25;;;;;;;19.30;10.37;;;6.10;99.90;;;;;;5007316;28;20464;-64
2024/02/02 06:05:53;;;;;;;18.73;9.77;;;6.10;99.90;;;;;;5018233;28;20475;-63
2024/02/02 06:08:23;;;;;;;16.67;10.00;;;6.10;99.90;;;;;;5013023;28;20971;-64
2024/02/02 06:10:51;;;;;;;19.93;10.80;;;6.10;99.90;;;;;;5012051;28;20575;-64
2024/02/02 06:13:19;;;;;;;19.13;10.43;;;6.10;99.90;;;;;;5010397;28;20495;-63
2024/02/02 06:15:47;;;;;;;15.27;10.10;;;6.10;99.90;;;;;;5012379;28;20495;-63
2024/02/02 06:18:16;;;;;;;18.07;10.93;;;6.10;99.90;;;;;;5015917;28;20463;-63
2024/02/02 06:20:44;;;;;;;20.00;10.80;;;6.10;99.90;;;;;;5004727;28;20484;-64
2024/02/02 06:23:13;;;;;;;17.13;10.80;;;6.10;99.90;;;;;;4998325;28;20928;-64
2024/02/02 06:25:42;;;;;;;17.27;10.87;;;6.10;99.90;;;;;;5000670;28;20507;-64
2024/02/02 06:28:10;;;;;;;21.83;11.10;;;6.10;99.90;;;;;;5004673;28;20549;-64
2024/02/02 06:30:38;;;;;;;17.23;10.60;;;6.10;99.90;;;;;;4999905;28;20591;-64
2024/02/02 06:33:07;;;;;;;19.50;11.37;;;6.10;99.90;;;;;;5002713;28;20558;-64
2024/02/02 06:35:35;;;;;;;18.97;11.30;;;6.10;99.90;;;;;;5002173;28;20471;-64
2024/02/02 06:38:04;;;;;;;17.30;11.43;;;6.10;99.90;;;;;;5006180;28;20888;-64
2024/02/02 06:40:32;;;;;;;21.10;12.23;;;6.10;99.90;;;;;;5007666;28;21238;-64
2024/02/02 06:43:01;;;;;;;22.03;11.60;;;6.10;99.90;;;;;;5007498;28;20543;-64
2024/02/02 06:45:29;;;;;;;24.00;11.73;;;6.10;99.90;;;;;;5009088;28;20503;-64
2024/02/02 06:47:58;;;;;;;27.57;13.50;;;6.10;99.90;;;;;;5003330;28;20467;-64
2024/02/02 06:50:27;;;;;;;24.43;13.80;;;6.20;99.90;;;;;;5002525;28;20475;-64
2024/02/02 06:52:55;;;;;;;27.43;13.03;;;6.20;99.90;;;;;;5003727;28;20502;-65
2024/02/02 06:55:23;;;;;;;21.80;13.23;;;6.20;99.90;;;;;;5000946;28;20568;-63
2024/02/02 06:57:51;;;;;;;19.50;12.27;;;6.20;99.90;;;;;;5002615;28;20472;-64
2024/02/02 07:00:20;;;;;;;26.60;13.90;;;6.20;99.90;;;;;;5004080;28;20895;-63
2024/02/02 07:02:48;;;;;;;26.73;13.53;;;6.20;99.90;;;;;;5002990;28;20484;-63
2024/02/02 07:05:17;;;;;;;22.07;13.57;;;6.20;99.90;;;;;;5001309;28;20472;-63
2024/02/02 07:07:45;;;;;;;20.47;14.07;;;6.20;99.90;;;;;;5000124;28;20504;-63
2024/02/02 07:10:16;;;;;;;27.20;13.90;;;6.20;99.90;;;;;;5003264;28;20567;-63
2024/02/02 07:12:57;;;;;;;25.77;14.53;;;6.10;99.90;;;;;;5000077;28;20572;-63
2024/02/02 07:15:29;;;;;;;23.23;13.87;;;6.20;99.90;;;;;;5002948;28;20479;-63
2024/02/02 07:17:58;;;;;;;24.37;15.70;;;6.20;99.90;;;;;;5003573;28;20472;-63
2024/02/02 07:21:08;;;;;;;21.10;14.27;;;6.10;99.90;;;;;;4998009;28;20484;-63
2024/02/02 07:23:38;;;;;;;20.33;12.93;;;6.10;99.90;;;;;;5001008;28;20482;-63
2024/02/02 07:26:13;;;;;;;21.37;13.03;;;6.10;99.90;;;;;;4993719;28;20460;-64
2024/02/02 07:28:41;;;;;;;21.30;13.70;;;6.10;99.90;;;;;;4999557;28;20587;-63
2024/02/02 07:31:16;;;;;;;20.97;14.43;;;6.10;99.90;;;;;;4999286;28;20986;-63
2024/02/02 07:33:47;;;;;;;17.63;13.33;;;6.10;99.90;;;;;;5000625;28;20550;-63
2024/02/02 07:36:22;;;;;;;19.43;13.03;;;6.10;99.90;;;;;;5000628;28;20568;-64
2024/02/02 07:38:53;;;;;;;26.70;15.40;;;6.10;99.90;;;;;;4999218;28;20473;-63
2024/02/02 07:41:24;;;;;;;19.30;13.33;;;6.10;99.90;;;;;;4999287;28;20496;-63
2024/02/02 07:43:53;;;;;;;21.77;14.10;;;6.10;99.90;;;;;;5001973;28;20465;-63
2024/02/02 07:46:24;;;;;;;18.90;13.83;;;6.10;99.90;;;;;;4999486;28;20508;-63
2024/02/02 07:48:53;;;;;;;20.97;13.70;;;6.10;99.90;;;;;;4999591;28;20826;-64
2024/02/02 07:51:22;;;;;;;23.33;14.07;;;6.10;99.90;;;;;;4997770;28;20539;-63
2024/02/02 07:53:50;;;;;;;21.87;14.70;;;6.10;99.90;;;;;;5001802;28;20514;-63
2024/02/02 07:56:21;;;;;;;21.47;14.10;;;6.10;99.90;;;;;;4999789;28;20475;-63
2024/02/02 07:58:50;;;;;;;20.20;14.10;;;6.10;99.90;;;;;;5003000;28;20548;-63
2024/02/02 08:01:18;;;;;;;23.63;15.03;;;6.00;99.90;;;;;;5001853;28;20500;-63
2024/02/02 08:03:48;;;;;;;24.90;14.10;;;6.00;99.90;;;;;;4998404;28;20563;-63
2024/02/02 08:06:16;;;;;;;22.30;13.93;;;6.00;99.90;;;;;;5002008;28;20485;-63
2024/02/02 08:08:44;;;;;;;21.17;14.50;;;6.00;99.90;;;;;;4997690;28;20468;-63
2024/02/02 08:11:12;;;;;;;29.23;14.70;;;6.00;99.90;;;;;;5000266;28;20608;-63
2024/02/02 08:13:42;;;;;;;25.37;15.10;;;6.00;99.90;;;;;;4996993;28;20506;-63
2024/02/02 08:16:10;;;;;;;27.90;16.03;;;6.00;99.90;;;;;;4999255;28;20476;-63
2024/02/02 08:18:39;;;;;;;22.77;15.00;;;6.00;99.90;;;;;;5000990;28;20518;-64
2024/02/02 08:21:09;;;;;;;25.43;15.27;;;6.00;99.90;;;;;;4994879;28;20488;-63
2024/02/02 08:23:39;;;;;;;21.60;14.73;;;6.00;99.90;;;;;;5002120;28;20468;-63
2024/02/02 08:26:07;;;;;;;24.00;16.00;;;6.00;99.90;;;;;;5002405;28;20508;-63
2024/02/02 08:28:38;;;;;;;23.33;15.80;;;6.00;99.90;;;;;;4998402;28;20472;-63
2024/02/02 08:31:18;;;;;;;21.10;15.33;;;6.00;99.90;;;;;;4997920;28;20496;-63
2024/02/02 08:33:46;;;;;;;22.40;14.40;;;6.00;99.90;;;;;;4997290;28;20513;-63
2024/02/02 08:36:17;;;;;;;26.03;15.80;;;6.00;99.90;;;;;;4999968;28;21068;-64
2024/02/02 08:38:46;;;;;;;23.87;15.90;;;5.90;99.90;;;;;;5001600;28;20468;-63
2024/02/02 08:41:14;;;;;;;27.03;15.43;;;5.90;99.90;;;;;;5001505;28;20933;-63
2024/02/02 08:43:42;;;;;;;23.47;15.73;;;6.00;99.90;;;;;;5005265;28;20468;-63
2024/02/02 08:46:12;;;;;;;23.67;16.63;;;6.00;99.90;;;;;;5004598;28;20487;-64
2024/02/02 08:48:44;;;;;;;22.63;15.40;;;6.00;99.90;;;;;;4997497;28;20476;-64
2024/02/02 08:51:52;;;;;;;27.67;15.90;;;6.00;99.90;;;;;;4997355;28;20488;-64
2024/02/02 08:54:45;;;;;;;22.53;15.10;;;6.00;99.90;;;;;;5001971;28;20491;-64
2024/02/02 08:57:37;;;;;;;27.53;16.60;;;6.00;99.90;;;;;;5000140;28;20523;-64
2024/02/02 09:00:33;;;;;;;24.03;15.00;;;6.00;99.90;;;;;;5004813;28;20560;-64
2024/02/02 09:03:26;;;;;;;21.63;14.67;;;6.00;99.90;;;;;;5002975;28;20580;-64
2024/02/02 09:05:57;;;;;;;23.37;14.50;;;6.00;99.90;;;;;;4998613;28;20468;-65
2024/02/02 09:08:37;;;;;;;21.80;15.63;;;6.00;99.90;;;;;;4996175;28;21041;-64
2024/02/02 09:11:26;;;;;;;21.63;15.30;;;6.00;99.90;;;;;;5000220;28;20985;-64
2024/02/02 09:14:10;;;;;;;18.70;14.20;;;6.10;99.90;;;;;;4996980;28;20488;-65
2024/02/02 09:16:41;;;;;;;23.30;13.57;;;6.10;99.90;;;;;;5002349;28;20484;-64
2024/02/02 09:19:31;;;;;;;20.27;12.83;;;6.10;99.90;;;;;;5001339;28;20866;-64
2024/02/02 09:22:02;;;;;;;21.17;13.03;;;6.10;99.90;;;;;;4990679;28;21152;-64
2024/02/02 09:24:47;;;;;;;21.33;13.73;;;6.20;99.90;;;;;;5000915;28;20552;-64
2024/02/02 09:27:22;;;;;;;22.53;13.40;;;6.20;99.90;;;;;;5000925;28;20530;-64
2024/02/02 09:29:53;;;;;;;22.50;13.60;;;6.20;99.90;;;;;;4999706;28;20475;-65
2024/02/02 09:32:21;;;;;;;23.83;14.53;;;6.20;99.90;;;;;;5000500;28;20563;-65
2024/02/02 09:34:50;;;;;;;22.00;13.50;;;6.20;99.90;;;;;;4999851;28;20578;-65
2024/02/02 09:37:22;;;;;;;23.23;13.83;;;6.20;99.90;;;;;;4997010;28;20530;-64
2024/02/02 09:39:58;;;;;;;17.30;13.43;;;6.20;99.90;;;;;;5002879;28;20504;-64
2024/02/02 09:42:49;;;;;;;17.60;13.70;;;6.20;99.90;;;;;;5003907;28;20496;-65
2024/02/02 09:45:39;;;;;;;20.57;13.10;;;6.30;99.90;;;;;;4998629;28;20548;-65
2024/02/02 09:48:17;;;;;;;24.00;14.07;;;6.30;99.90;;;;;;5001240;28;20997;-65
2024/02/02 09:50:54;;;;;;;22.23;14.90;;;6.30;99.90;;;;;;4998090;28;20491;-65
2024/02/02 09:53:40;;;;;;;21.60;13.23;;;6.30;99.90;;;;;;4998453;28;21010;-64
2024/02/02 09:56:17;;;;;;;30.13;15.40;;;6.40;99.90;;;;;;5004516;28;20464;-64
2024/02/02 09:58:52;;;;;;;21.97;13.50;;;6.40;99.90;;;;;;4995627;28;20936;-65
2024/02/02 10:01:32;;;;;;;19.90;13.77;;;6.40;99.90;;;;;;4990516;28;20626;-63
2024/02/02 10:04:12;;;;;;;21.37;14.03;;;6.40;99.90;;;;;;4951631;28;20479;-64
2024/02/02 10:06:48;;;;;;;21.00;13.93;;;6.40;99.90;;;;;;4967648;28;20503;-64
2024/02/02 10:09:33;;;;;;;22.40;13.40;;;6.40;99.90;;;;;;5005363;28;20502;-64
2024/02/02 10:12:13;;;;;;;22.53;14.50;;;6.40;99.90;;;;;;5006531;28;20476;-64
2024/02/02 10:15:21;;;;;;;14.90;12.10;;;6.40;99.90;;;;;;5005581;28;20600;-64
2024/02/02 10:18:29;;;;;;;22.87;13.47;;;6.40;99.90;;;;;;5006361;28;20500;-64
2024/02/02 10:21:02;;;;;;;20.27;13.10;;;6.50;99.90;;;;;;4973102;28;20597;-64
2024/02/02 10:23:46;;;;;;;18.83;12.67;;;6.50;99.90;;;;;;5005924;28;21018;-64
2024/02/02 10:26:29;;;;;;;25.37;12.97;;;6.50;99.90;;;;;;5003208;28;20564;-63
2024/02/02 10:29:12;;;;;;;25.77;15.40;;;6.60;99.90;;;;;;5004150;28;20591;-65
2024/02/02 10:32:00;;;;;;;23.03;15.47;;;6.70;99.90;;;;;;4997227;28;20591;-63
2024/02/02 10:34:41;;;;;;;23.00;13.30;;;6.70;99.90;;;;;;5001522;28;20584;-64
2024/02/02 10:37:23;;;;;;;21.60;12.80;;;6.60;99.90;;;;;;5005675;28;20960;-64
2024/02/02 10:40:10;;;;;;;21.67;12.37;;;6.60;99.90;;;;;;5005841;28;20546;-64
2024/02/02 10:42:57;;;;;;;19.97;12.63;;;6.70;99.90;;;;;;5000431;28;20551;-64
2024/02/02 10:45:34;;;;;;;21.40;12.33;;;6.70;99.90;;;;;;5002271;28;20549;-64
2024/02/02 10:48:16;;;;;;;17.77;12.83;;;6.70;99.90;;;;;;5004662;28;20558;-64
2024/02/02 10:50:49;;;;;;;20.33;12.30;;;6.70;99.90;;;;;;4998946;28;21015;-64
2024/02/02 10:53:30;;;;;;;19.37;11.20;;;6.80;99.90;;;;;;5001438;28;20477;-64
2024/02/02 10:56:11;;;;;;;17.87;12.37;;;6.80;99.90;;;;;;5004497;28;20499;-66
2024/02/02 10:58:49;;;;;;;17.37;11.50;;;6.80;99.90;;;;;;5002911;28;20463;-64
2024/02/02 11:01:28;;;;;;;20.00;12.00;;;6.80;99.90;;;;;;5005129;28;20996;-65
2024/02/02 11:04:03;;;;;;;27.63;14.27;;;6.90;99.90;;;;;;5003144;28;20464;-65
2024/02/02 11:06:42;;;;;;;25.10;14.43;;;6.90;99.90;;;;;;5001742;28;20471;-64
2024/02/02 11:09:20;;;;;;;18.73;14.03;;;6.90;99.90;;;;;;5006054;28;20911;-64
2024/02/02 11:11:55;;;;;;;21.03;14.30;;;6.90;99.90;;;;;;5002137;28;20484;-64
2024/02/02 11:14:32;;;;;;;22.83;14.77;;;6.90;99.90;;;;;;5003361;28;20483;-65
2024/02/02 11:17:12;;;;;;;22.57;14.17;;;7.00;99.90;;;;;;5002579;28;20572;-64
2024/02/02 11:19:54;;;;;;;20.70;13.43;;;7.00;99.90;;;;;;4996328;28;20990;-64
2024/02/02 11:22:26;;;;;;;17.27;12.80;;;7.00;99.90;;;;;;5021470;28;20487;-64
2024/02/02 11:25:11;;;;;;;20.20;12.77;;;7.00;99.90;;;;;;5024084;28;20479;-64
2024/02/02 11:27:49;;;;;;;17.47;12.23;;;7.00;99.90;;;;;;5023910;28;20468;-64
2024/02/02 11:30:32;;;;;;;22.90;13.60;;;7.00;99.90;;;;;;5021914;28;20491;-64
2024/02/02 11:33:28;;;;;;;22.17;13.87;;;7.00;99.90;;;;;;5018358;28;20501;-64
2024/02/02 11:36:10;;;;;;;19.37;12.80;;;7.00;99.90;;;;;;5018667;28;21050;-65
2024/02/02 11:38:48;;;;;;;24.30;14.70;;;7.00;99.90;;;;;;5022001;28;20471;-65
2024/02/02 11:41:19;;;;;;;22.60;13.53;;;7.00;99.90;;;;;;5023678;28;20487;-65
2024/02/02 11:43:48;;;;;;;25.70;13.50;;;7.00;99.90;;;;;;5023112;28;20487;-64
2024/02/02 11:46:21;;;;;;;27.10;15.33;;;7.10;99.90;;;;;;5023583;28;20533;-64
2024/02/02 11:48:56;;;;;;;24.40;15.00;;;7.10;99.90;;;;;;5021639;28;20613;-64
2024/02/02 11:51:25;;;;;;;26.00;14.17;;;7.10;99.90;;;;;;5022565;28;20494;-63
2024/02/02 11:54:02;;;;;;;23.43;15.03;;;7.10;99.90;;;;;;5025786;28;20478;-64
2024/02/02 11:56:34;;;;;;;22.70;14.80;;;7.10;99.90;;;;;;5023821;28;20996;-64
2024/02/02 11:59:05;;;;;;;24.13;14.77;;;7.10;99.90;;;;;;5022129;28;20477;-65
2024/02/02 12:01:45;;;;;;;28.30;15.47;;;7.10;99.90;;;;;;5009196;28;20511;-64
2024/02/02 12:04:30;;;;;;;27.17;15.80;;;7.10;99.90;;;;;;5003079;28;20468;-65
2024/02/02 12:07:10;;;;;;;30.97;15.50;;;7.10;99.90;;;;;;5000004;28;20475;-64
2024/02/02 12:09:44;;;;;;;27.40;15.47;;;7.10;99.90;;;;;;4998273;28;20491;-64
2024/02/02 12:12:18;;;;;;;24.30;14.83;;;7.10;99.90;;;;;;4998840;28;20500;-63
2024/02/02 12:14:49;;;;;;;27.23;15.30;;;7.20;99.90;;;;;;4999718;28;20473;-64
2024/02/02 12:17:18;;;;;;;24.83;15.40;;;7.20;99.90;;;;;;5004610;28;20515;-63
2024/02/02 12:19:48;;;;;;;33.57;15.40;;;7.20;99.90;;;;;;5001671;28;20468;-64
2024/02/02 12:22:16;;;;;;;21.90;14.60;;;7.30;99.90;;;;;;5000473;28;21227;-64
2024/02/02 12:24:45;;;;;;;26.27;15.57;;;7.30;99.90;;;;;;5001472;28;20559;-65
2024/02/02 12:27:14;;;;;;;24.57;15.40;;;7.30;99.90;;;;;;5002958;28;20587;-65
2024/02/02 12:29:42;;;;;;;23.83;14.50;;;7.30;99.90;;;;;;5003502;28;20937;-66
2024/02/02 12:32:11;;;;;;;25.43;14.17;;;7.30;99.90;;;;;;5002452;28;20507;-64
2024/02/02 12:34:39;;;;;;;24.20;14.20;;;7.30;99.90;;;;;;5002487;28;20477;-64
2024/02/02 12:37:10;;;;;;;26.47;14.50;;;7.30;99.90;;;;;;4997948;28;21038;-64
2024/02/02 12:39:38;;;;;;;23.10;14.50;;;7.40;99.90;;;;;;5003216;28;20552;-64
2024/02/02 12:42:06;;;;;;;27.50;14.47;;;7.40;99.90;;;;;;4999099;28;20492;-65
2024/02/02 12:44:35;;;;;;;24.60;15.60;;;7.40;99.90;;;;;;5003932;28;20482;-64
2024/02/02 12:47:04;;;;;;;19.90;13.77;;;7.40;99.90;;;;;;5001409;28;20815;-64
2024/02/02 12:49:34;;;;;;;21.57;12.67;;;7.40;99.90;;;;;;4999865;28;20483;-64
2024/02/02 12:52:02;;;;;;;25.90;12.83;;;7.40;99.90;;;;;;4998449;28;20489;-65
2024/02/02 12:54:32;;;;;;;17.57;11.20;;;7.40;99.90;;;;;;5003076;28;20917;-65
2024/02/02 12:57:00;;;;;;;21.20;12.30;;;7.50;99.90;;;;;;5002253;28;20501;-64
2024/02/02 12:59:28;;;;;;;20.67;12.03;;;7.40;99.90;;;;;;5001344;28;20473;-63
2024/02/02 13:01:56;;;;;;;19.53;11.83;;;7.40;99.90;;;;;;4995764;28;20974;-65
2024/02/02 13:04:24;;;;;;;21.70;11.10;;;7.40;99.90;;;;;;4998902;28;20860;-63
2024/02/02 13:06:53;;;;;;;24.33;10.80;;;7.40;99.90;;;;;;4999311;28;20994;-65